Flight Track Log - Related Links

Times and Time Zones

All times are in EDT time to prevent confusion due to time zone crossing. See the EJA922 flight status page for this flight to view local times or setup timezone preferences in your user account.

Time Position Orientation Groundspeed Altitude Reporting Facility
EDT Latitude Longitude Course Direction KTS MPH feet Rate Location/Type
Thu 07:59:51 AM 41.2936 -95.9003 165° South 160 184 1,400  Level Minneapolis Center
Thu 08:00:08 AM 41.2797 -95.8953 165° South 179 206 2,200 3,349 Climbing Minneapolis Center
Thu 08:00:34 AM 41.2561 -95.9047 197° South 197 227 3,800 2,754 Climbing Minneapolis Center
Thu 08:01:09 AM 41.2539 -95.9453 266° West 238 274 5,000 2,474 Climbing Minneapolis Center
Thu 08:02:11 AM 41.2961 -96.0231 306° West 252 290 7,800 2,732 Climbing Minneapolis Center
Thu 08:03:12 AM 41.3381 -96.1150 301° West 272 313 10,600 2,656 Climbing Minneapolis Center
Thu 08:04:13 AM 41.3825 -96.2083 302° West 288 331 13,200 2,361 Climbing Minneapolis Center
Thu 08:05:14 AM 41.4314 -96.3181 301° West 326 375 15,400 2,213 Climbing Minneapolis Center
Thu 08:06:15 AM 41.4822 -96.4294 301° West 346 398 17,700 2,361 Climbing Minneapolis Center
Thu 08:07:16 AM 41.5428 -96.5369 307° West 357 411 20,200 2,390 Climbing Minneapolis Center
Thu 08:08:18 AM 41.6058 -96.6436 308° West 363 418 22,600 1,854 Climbing Minneapolis Center
Thu 08:09:19 AM 41.6658 -96.7539 306° West 365 420 24,000 689 Climbing Minneapolis Center
Thu 08:10:20 AM 41.7353 -96.8797 307° West 393 452 24,000  Level Minneapolis Center
Thu 08:11:21 AM 41.7931 -97.0286 298° West 426 490 24,000  Level Minneapolis Center
Thu 08:12:22 AM 41.8539 -97.1819 298° West 449 517 24,000  Level Minneapolis Center
Thu 08:13:24 AM 41.9169 -97.3325 299° West 458 527 24,000  Level Minneapolis Center
Thu 08:14:25 AM 41.9964 -97.5072 302° West 459 528 24,000  Level Minneapolis Center
Thu 08:15:26 AM 42.0556 -97.6467 300° West 446 513 24,000  Level Minneapolis Center
Thu 08:16:28 AM 42.1094 -97.7861 298° West 427 491 24,000  Level Minneapolis Center
Thu 08:17:29 AM 42.1653 -97.9231 299° West 425 489 24,000  Level Minneapolis Center
Thu 08:18:30 AM 42.2214 -98.0631 298° West 425 489 24,000  Level Minneapolis Center
Thu 08:19:32 AM 42.2772 -98.1992 299° West 419 482 24,000  Level Minneapolis Center
Thu 08:20:33 AM 42.3325 -98.3381 298° West 420 483 24,000 -927 Level Minneapolis Center
Thu 08:21:35 AM 42.3894 -98.4817 298° West 431 496 22,100 -2,341 Descending Minneapolis Center
Thu 08:22:36 AM 42.4594 -98.6614 298° West 447 514 19,200 -2,508 Descending Minneapolis Center
Thu 08:23:37 AM 42.4822 -98.8128 282° West 413 475 17,000 -2,049 Descending Minneapolis Center
Thu 08:25:20 AM 42.5022 -99.0525 277° West 403 464 13,600 -2,049 Descending Denver Center
Thu 08:26:21 AM 42.5139 -99.2006 276° West 399 459 11,400 -1,869 Descending Denver Center
Thu 08:27:22 AM 42.5261 -99.3350 277° West 375 432 9,800 -1,289 Descending Denver Center
Thu 08:28:22 AM 42.5347 -99.4444 276° West 316 364 8,800 -893 Descending Denver Center
Thu 08:29:23 AM 42.5444 -99.5686 276° West 292 336 8,000 -541 Descending Denver Center
Thu 08:30:24 AM 42.5531 -99.6736 276° West 284 327 7,700 -295 Descending Denver Center

Login

Don't have an account? Register now (free) for customized features, flight alerts, and more!